Terminal Aerodrome Forecast
Issued by NWS

Home | Current Version | Previous Version | Text Only | Print | Product List | Glossary On
Versions: 1 2 3 4 5 6 7 8 9 10 11 12 13 14 15 16 17 18 19
817
FTUS45 KTFX 041750
TAFGTF
TAF
KGTF 041750Z 0418/0518 22018G28KT P6SM BKN070
      TEMPO 0418/0422 23025G36KT
     FM042300 28015G28KT P6SM -SHSN SCT030 BKN050
     FM050100 01018KT 4SM -SHSN BR SCT020 BKN040
      TEMPO 0502/0505 1SM -SN BR BKN015
     FM050500 35008KT 1SM -SN BR SCT007 BKN015
     FM051100 02008KT 4SM -SN BR SCT007 BKN015=

USA.gov is the U.S. government's official web portal to all federal, state and local government web resources and services.